KDED/DED METAR and TAF weather

Enter ICAO airport designator
Station Type Date Time Source
KDED METAR 2019/08/24 19:55 UTC NOAA

KDED 241955Z AUTO 06007G17KT 10SM SCT035 SCT050 31/23 A2994 RMK AO2


Station Type Date Time Source
KDED Decoded METAR 2019/08/24 19:55 UTC NOAA

Station name not available
Aug 24, 2019 - 03:55 PM EDT / 2019.08.24 1955 UTC
Wind: from the ENE (060 degrees) at 8 MPH (7 KT) gusting to 20 MPH (17 KT):0
Visibility: 10 mile(s):0
Sky conditions: partly cloudy
Temperature: 87 F (31 C)
Heat index: 93.9 F (34.4 C):1
Dew Point: 73 F (23 C)
Relative Humidity: 62%
Pressure (altimeter): 29.94 in. Hg (1013 hPa)
ob: KDED 241955Z AUTO 06007G17KT 10SM SCT035 SCT050 31/23 A2994 RMK AO2
cycle: 20

Station Type Date Time Source
KDED TAF UTC NOAA

Error!

Example: see airport list